Time;durP1;ratioP1;P1;durP2;ratioP2;P2;SDS_P1;SDS_P2;PMS_P1;PMS_P2;Temp;Humidity;BMP_temperature;BMP_pressure;BME280_temperature;BME280_humidity;BME280_pressure;Samples;Min_cycle;Max_cycle;Signal;HPM_P1;HPM_P2
2023/01/01 00:02:35;;;;;;;31.98;19.38;;;;;;;5.71;100.00;99473.66;5050516;28;20045;-68
2023/01/01 00:05:20;;;;;;;29.40;17.52;;;;;;;5.70;100.00;99472.81;5049723;28;20059;-68
2023/01/01 00:08:05;;;;;;;28.48;17.58;;;;;;;5.72;100.00;99471.00;5050090;28;20049;-68
2023/01/01 00:10:50;;;;;;;31.27;18.40;;;;;;;5.70;100.00;99466.75;5049018;28;20048;-67
2023/01/01 00:13:37;;;;;;;27.67;16.70;;;;;;;5.72;100.00;99467.53;5038354;28;20045;-68
2023/01/01 00:16:22;;;;;;;29.17;17.33;;;;;;;5.74;100.00;99458.78;5050203;28;20048;-67
2023/01/01 00:19:07;;;;;;;30.33;17.55;;;;;;;5.74;100.00;99463.13;5050050;28;20475;-68
2023/01/01 00:21:52;;;;;;;24.65;15.70;;;;;;;5.71;100.00;99469.31;5035127;28;20135;-67
2023/01/01 00:24:37;;;;;;;28.27;16.73;;;;;;;5.74;100.00;99477.00;5049341;28;20095;-68
2023/01/01 00:27:21;;;;;;;27.27;16.45;;;;;;;5.70;100.00;99477.13;5049877;28;20071;-67
2023/01/01 00:30:07;;;;;;;26.55;15.65;;;;;;;5.68;100.00;99482.41;5049055;28;20041;-67
2023/01/01 00:32:52;;;;;;;28.20;16.75;;;;;;;5.71;100.00;99482.31;5049365;28;20449;-67
2023/01/01 00:35:37;;;;;;;31.42;16.95;;;;;;;5.70;100.00;99479.75;5050053;28;20111;-67
2023/01/01 00:38:22;;;;;;;29.08;15.77;;;;;;;5.65;100.00;99480.78;5034871;28;20504;-68
2023/01/01 00:41:06;;;;;;;27.88;14.98;;;;;;;5.64;100.00;99473.91;5050208;28;20552;-68
2023/01/01 00:43:51;;;;;;;26.45;15.68;;;;;;;5.66;100.00;99477.25;5049584;28;20056;-66
2023/01/01 00:46:36;;;;;;;29.25;17.85;;;;;;;5.58;100.00;99481.06;5048759;28;20462;-67
2023/01/01 00:49:21;;;;;;;29.55;18.13;;;;;;;5.54;100.00;99480.31;5021140;28;20087;-67
2023/01/01 00:52:05;;;;;;;27.58;16.20;;;;;;;5.51;100.00;99473.50;5041613;28;20139;-67
2023/01/01 00:54:50;;;;;;;28.92;16.10;;;;;;;5.52;100.00;99475.19;5049530;28;20778;-67
2023/01/01 00:57:35;;;;;;;29.55;16.90;;;;;;;5.48;100.00;99483.16;5050048;28;20107;-67
2023/01/01 01:00:20;;;;;;;28.52;16.08;;;;;;;5.46;100.00;99478.00;5048818;28;20052;-67
2023/01/01 01:03:05;;;;;;;25.13;15.30;;;;;;;5.50;100.00;99481.34;5035417;28;20076;-67
2023/01/01 01:05:50;;;;;;;27.58;15.90;;;;;;;5.50;100.00;99471.78;5049172;28;20498;-67
2023/01/01 01:08:37;;;;;;;25.42;14.55;;;;;;;5.42;100.00;99473.81;5049764;28;20480;-67
2023/01/01 01:11:24;;;;;;;26.45;15.25;;;;;;;5.45;100.00;99470.25;5033893;28;20103;-67
2023/01/01 01:14:08;;;;;;;27.45;16.88;;;;;;;5.44;100.00;99477.19;5048328;28;20041;-67
2023/01/01 01:16:53;;;;;;;26.85;14.93;;;;;;;5.46;100.00;99470.22;5029038;28;20080;-66
2023/01/01 01:19:38;;;;;;;28.90;16.25;;;;;;;5.49;100.00;99464.03;5034601;28;20045;-67
2023/01/01 01:22:23;;;;;;;26.60;15.90;;;;;;;5.49;100.00;99457.09;5049346;28;20106;-67
2023/01/01 01:25:08;;;;;;;27.52;16.42;;;;;;;5.49;100.00;99446.69;5049784;28;20049;-67
2023/01/01 01:27:54;;;;;;;29.00;15.55;;;;;;;5.48;100.00;99447.63;5038189;28;20049;-67
2023/01/01 01:30:40;;;;;;;29.10;15.88;;;;;;;5.44;100.00;99451.22;5049886;28;20072;-67
2023/01/01 01:33:24;;;;;;;28.05;16.02;;;;;;;5.43;100.00;99458.16;5034659;28;20061;-67
2023/01/01 01:36:10;;;;;;;25.42;16.08;;;;;;;5.39;100.00;99463.53;5040278;28;20048;-68
2023/01/01 01:38:56;;;;;;;30.05;15.63;;;;;;;5.43;100.00;99454.72;5053162;28;20044;-68
2023/01/01 01:41:41;;;;;;;24.80;14.52;;;;;;;5.38;100.00;99452.28;5053078;28;20041;-67
2023/01/01 01:44:47;;;;;;;30.38;16.65;;;;;;;5.37;100.00;99457.56;5027846;28;20046;-68
2023/01/01 01:47:37;;;;;;;25.70;15.65;;;;;;;5.40;100.00;99455.66;5043805;28;20527;-67
2023/01/01 01:50:30;;;;;;;28.52;15.90;;;;;;;5.35;100.00;99442.00;5040806;28;20080;-67
2023/01/01 01:53:22;;;;;;;27.08;15.82;;;;;;;5.35;100.00;99446.34;5051763;28;20041;-67
2023/01/01 01:56:12;;;;;;;25.58;15.57;;;;;;;5.34;100.00;99427.31;5051702;28;20056;-67
2023/01/01 01:58:57;;;;;;;27.50;15.88;;;;;;;5.34;100.00;99422.09;5053385;28;20055;-68
2023/01/01 02:01:42;;;;;;;27.90;15.75;;;;;;;5.36;100.00;99412.50;5053136;28;20068;-69
2023/01/01 02:04:27;;;;;;;28.77;15.38;;;;;;;5.39;100.00;99412.41;5052724;28;20123;-67
2023/01/01 02:07:13;;;;;;;27.90;15.93;;;;;;;5.37;100.00;99416.78;5052914;28;20044;-67
2023/01/01 02:10:00;;;;;;;23.77;15.35;;;;;;;5.42;100.00;99414.03;5042409;28;20098;-68
2023/01/01 02:12:44;;;;;;;25.42;15.05;;;;;;;5.42;100.00;99417.47;5050794;28;20083;-68
2023/01/01 02:15:35;;;;;;;27.38;15.25;;;;;;;5.39;100.00;99412.41;5053166;28;20048;-67
2023/01/01 02:18:25;;;;;;;28.33;17.42;;;;;;;5.38;100.00;99417.66;5039808;28;20383;-67
2023/01/01 02:21:14;;;;;;;25.27;16.83;;;;;;;5.38;100.00;99404.66;5052075;28;20045;-66
2023/01/01 02:24:19;;;;;;;24.70;15.32;;;;;;;5.35;100.00;99409.97;5052544;28;20068;-66
2023/01/01 02:27:16;;;;;;;27.73;16.30;;;;;;;5.29;100.00;99406.69;5051835;28;20458;-67
2023/01/01 02:30:04;;;;;;;27.45;16.05;;;;;;;5.27;100.00;99416.28;5052609;28;20120;-67
2023/01/01 02:32:55;;;;;;;28.98;16.67;;;;;;;5.30;100.00;99430.94;5040547;28;20052;-67
2023/01/01 02:35:45;;;;;;;27.83;14.88;;;;;;;5.35;100.00;99420.38;5051672;28;20051;-67
2023/01/01 02:38:43;;;;;;;30.05;16.63;;;;;;;5.34;100.00;99429.91;5052191;28;20052;-67
2023/01/01 02:41:44;;;;;;;25.70;16.58;;;;;;;5.33;100.00;99420.44;5052560;28;20045;-66
2023/01/01 02:44:31;;;;;;;25.63;16.20;;;;;;;5.35;100.00;99428.16;5028539;28;20084;-67
2023/01/01 02:47:18;;;;;;;28.23;16.15;;;;;;;5.31;100.00;99422.22;5023866;28;20049;-67
2023/01/01 02:50:11;;;;;;;27.33;16.08;;;;;;;5.30;100.00;99418.78;5050957;28;20085;-67
2023/01/01 02:53:00;;;;;;;25.50;14.32;;;;;;;5.38;100.00;99422.84;5051818;28;20072;-67
2023/01/01 02:56:06;;;;;;;25.65;14.27;;;;;;;5.60;100.00;99422.91;5050750;28;20056;-67
2023/01/01 03:02:57;;;;;;;27.27;15.35;;;;;;;5.55;100.00;99427.41;5043884;28;20068;-68
2023/01/01 03:06:21;;;;;;;25.48;14.82;;;;;;;5.41;100.00;99428.78;4996267;28;20197;-69
2023/01/01 03:09:11;;;;;;;23.27;15.02;;;;;;;5.46;100.00;99427.75;5002633;28;20112;-68
2023/01/01 03:12:20;;;;;;;26.13;14.50;;;;;;;5.55;100.00;99425.69;5013670;28;20062;-66
2023/01/01 03:15:09;;;;;;;27.98;15.70;;;;;;;5.41;100.00;99434.00;4976715;28;20089;-67
2023/01/01 03:18:37;;;;;;;23.83;14.48;;;;;;;5.35;100.00;99431.63;4989795;28;20449;-67
2023/01/01 03:21:21;;;;;;;27.90;16.55;;;;;;;5.30;100.00;99444.75;5008703;28;20088;-67
2023/01/01 03:24:11;;;;;;;26.95;15.77;;;;;;;5.23;100.00;99443.28;4993566;28;20553;-67
2023/01/01 03:27:01;;;;;;;31.52;15.88;;;;;;;5.26;100.00;99452.72;4989833;28;20054;-67
2023/01/01 03:29:49;;;;;;;23.63;14.18;;;;;;;5.26;100.00;99456.16;4973318;28;20046;-66
2023/01/01 03:35:59;;;;;;;26.55;15.10;;;;;;;5.36;100.00;99461.03;4925480;29;20511;-66
2023/01/01 03:38:52;;;;;;;24.05;14.27;;;;;;;5.34;100.00;99461.09;4950153;28;20054;-66
2023/01/01 03:42:06;;;;;;;22.60;13.80;;;;;;;5.33;100.00;99454.22;4940725;28;20474;-67
2023/01/01 03:44:57;;;;;;;24.48;13.50;;;;;;;5.35;100.00;99442.00;4975270;28;20062;-67
2023/01/01 03:47:42;;;;;;;21.23;12.95;;;;;;;5.39;100.00;99437.53;4989476;28;20104;-67
2023/01/01 03:50:39;;;;;;;26.77;14.05;;;;;;;5.42;100.00;99432.22;4975577;28;20125;-67
2023/01/01 03:53:41;;;;;;;23.88;13.10;;;;;;;5.41;100.00;99434.00;4989809;28;20125;-66
2023/01/01 03:56:39;;;;;;;26.77;14.07;;;;;;;5.37;100.00;99435.00;4989911;28;20045;-67
2023/01/01 03:59:33;;;;;;;24.15;13.82;;;;;;;5.33;100.00;99445.56;4988302;28;20061;-67
2023/01/01 04:02:25;;;;;;;21.85;13.82;;;;;;;5.32;100.00;99449.06;4989564;28;20046;-66
2023/01/01 04:05:11;;;;;;;23.77;13.43;;;;;;;5.36;100.00;99456.69;4986774;28;20062;-66
2023/01/01 04:07:59;;;;;;;21.50;13.50;;;;;;;5.38;100.00;99464.44;4984818;28;20145;-66
2023/01/01 04:10:49;;;;;;;21.63;12.85;;;;;;;5.35;100.00;99470.59;5006024;28;20049;-66
2023/01/01 04:13:45;;;;;;;21.13;12.95;;;;;;;5.37;100.00;99479.16;5050822;28;20061;-67
2023/01/01 04:16:30;;;;;;;22.17;13.38;;;;;;;5.38;100.00;99473.09;5038366;28;20274;-66
2023/01/01 04:19:16;;;;;;;21.25;12.80;;;;;;;5.42;100.00;99479.00;5050141;28;20041;-67
2023/01/01 04:22:01;;;;;;;20.10;11.27;;;;;;;5.52;100.00;99482.13;5050544;28;20144;-66
2023/01/01 04:24:46;;;;;;;21.55;12.95;;;;;;;5.53;100.00;99483.84;5050282;28;20045;-67
2023/01/01 04:27:30;;;;;;;19.75;11.43;;;;;;;5.50;100.00;99487.38;5050204;28;20055;-67
2023/01/01 04:30:15;;;;;;;19.27;11.82;;;;;;;5.49;100.00;99483.09;5049091;28;20131;-66
2023/01/01 04:33:00;;;;;;;19.35;11.75;;;;;;;5.53;100.00;99482.06;5037335;28;20067;-66
2023/01/01 04:35:45;;;;;;;19.58;11.90;;;;;;;5.48;100.00;99475.34;5050339;28;20099;-67
2023/01/01 04:38:29;;;;;;;21.38;12.63;;;;;;;5.46;100.00;99485.81;5049972;28;20052;-66
2023/01/01 04:41:14;;;;;;;20.65;12.25;;;;;;;5.41;100.00;99490.31;5049079;28;20377;-67
2023/01/01 04:43:59;;;;;;;22.92;12.73;;;;;;;5.35;100.00;99482.72;5050264;28;20817;-66
2023/01/01 04:46:44;;;;;;;22.05;12.68;;;;;;;5.34;100.00;99481.88;5049747;28;20041;-66
2023/01/01 04:49:28;;;;;;;22.02;13.13;;;;;;;5.30;100.00;99480.31;5049600;28;20051;-66
2023/01/01 04:52:13;;;;;;;22.48;12.77;;;;;;;5.26;100.00;99474.34;5049161;28;20511;-67
2023/01/01 04:54:59;;;;;;;23.10;12.88;;;;;;;5.27;100.00;99470.03;5038085;28;20052;-67
2023/01/01 04:57:44;;;;;;;22.70;13.20;;;;;;;5.21;100.00;99468.47;5048488;28;20064;-67
2023/01/01 05:00:29;;;;;;;20.48;12.27;;;;;;;5.22;100.00;99466.72;5048907;28;20052;-68
2023/01/01 05:03:13;;;;;;;20.48;12.13;;;;;;;5.22;100.00;99471.94;5050167;28;20056;-67
2023/01/01 05:06:03;;;;;;;22.33;12.55;;;;;;;5.23;100.00;99481.41;5049864;28;20128;-67
2023/01/01 05:08:50;;;;;;;19.33;11.63;;;;;;;5.21;100.00;99485.78;5048489;28;20048;-68
2023/01/01 05:11:34;;;;;;;20.60;11.90;;;;;;;5.16;100.00;99478.16;5040479;28;20057;-69
2023/01/01 05:14:19;;;;;;;25.50;12.85;;;;;;;5.13;100.00;99496.47;5053502;28;20123;-67
2023/01/01 05:17:03;;;;;;;25.58;13.38;;;;;;;5.11;100.00;99495.69;5053494;28;20400;-67
2023/01/01 05:19:48;;;;;;;20.70;12.77;;;;;;;5.07;100.00;99488.88;5052728;28;20037;-67
2023/01/01 05:22:33;;;;;;;24.70;12.23;;;;;;;5.07;100.00;99486.28;5053474;28;20047;-67
2023/01/01 05:25:18;;;;;;;22.98;13.25;;;;;;;5.05;100.00;99495.00;5052293;28;20540;-67
2023/01/01 05:28:02;;;;;;;23.88;13.75;;;;;;;5.05;100.00;99499.31;5053674;28;20049;-67
2023/01/01 05:30:47;;;;;;;25.30;12.77;;;;;;;5.08;100.00;99499.22;5053865;28;20084;-67
2023/01/01 05:33:32;;;;;;;20.20;12.23;;;;;;;5.17;100.00;99485.09;5053193;28;20049;-68
2023/01/01 05:36:20;;;;;;;20.45;12.20;;;;;;;5.19;100.00;99480.66;5052481;28;20049;-68
2023/01/01 05:39:06;;;;;;;21.10;12.27;;;;;;;5.12;100.00;99479.19;5042881;28;20507;-67
2023/01/01 05:41:51;;;;;;;20.40;12.32;;;;;;;5.07;100.00;99474.16;5052637;28;20056;-67
2023/01/01 05:44:35;;;;;;;22.02;12.63;;;;;;;5.06;100.00;99488.03;5053010;28;20506;-66
2023/01/01 05:47:21;;;;;;;17.30;12.00;;;;;;;5.07;100.00;99496.69;5053225;28;20499;-67
2023/01/01 05:50:06;;;;;;;17.92;11.82;;;;;;;5.08;100.00;99509.63;5041022;28;20037;-66
2023/01/01 05:52:51;;;;;;;23.35;12.90;;;;;;;5.08;100.00;99519.16;5037931;28;20049;-67
2023/01/01 05:55:36;;;;;;;22.17;12.20;;;;;;;5.01;100.00;99519.34;5052973;28;20048;-66
2023/01/01 05:58:20;;;;;;;21.00;12.35;;;;;;;4.98;100.00;99514.25;5042321;28;20045;-66
2023/01/01 06:01:06;;;;;;;21.60;13.00;;;;;;;4.93;100.00;99517.03;5052468;28;20045;-67
2023/01/01 06:03:52;;;;;;;21.25;12.75;;;;;;;4.91;100.00;99515.38;5052758;28;20052;-66
2023/01/01 06:06:37;;;;;;;20.48;12.00;;;;;;;4.93;100.00;99519.63;5037695;28;20041;-67
2023/01/01 06:09:21;;;;;;;19.23;11.57;;;;;;;4.90;100.00;99519.72;5050841;28;20068;-67
2023/01/01 06:12:07;;;;;;;21.88;11.65;;;;;;;4.95;100.00;99542.06;5052805;28;20053;-67
2023/01/01 06:14:51;;;;;;;17.95;11.70;;;;;;;4.92;100.00;99546.50;5040500;28;20136;-67
2023/01/01 06:17:36;;;;;;;21.33;11.48;;;;;;;4.92;100.00;99540.44;5052393;28;20037;-67
2023/01/01 06:20:21;;;;;;;20.67;12.30;;;;;;;4.86;100.00;99538.06;5052354;28;20052;-67
2023/01/01 06:23:05;;;;;;;22.08;12.60;;;;;;;4.87;100.00;99532.81;5051073;28;20140;-67
2023/01/01 06:25:52;;;;;;;20.00;12.25;;;;;;;4.85;100.00;99528.56;5052242;28;20099;-67
2023/01/01 06:28:36;;;;;;;17.05;11.52;;;;;;;4.83;100.00;99535.56;5052310;28;20124;-67
2023/01/01 06:31:22;;;;;;;18.80;11.73;;;;;;;4.87;100.00;99544.94;5051611;28;20056;-67
2023/01/01 06:34:07;;;;;;;22.42;12.52;;;;;;;4.86;100.00;99556.22;5052332;28;20119;-67
2023/01/01 06:36:51;;;;;;;19.95;11.45;;;;;;;4.90;100.00;99552.63;5052179;28;20049;-68
2023/01/01 06:39:36;;;;;;;19.58;12.05;;;;;;;4.99;100.00;99562.72;5052063;28;20103;-67
2023/01/01 06:42:22;;;;;;;20.80;11.75;;;;;;;4.97;100.00;99561.94;5052216;28;20051;-67
2023/01/01 06:45:07;;;;;;;18.63;11.27;;;;;;;4.97;100.00;99559.31;5050765;28;20049;-67
2023/01/01 06:47:52;;;;;;;21.23;12.98;;;;;;;5.00;100.00;99556.63;5051356;28;20412;-67
2023/01/01 06:50:37;;;;;;;22.33;11.05;;;;;;;5.07;100.00;99559.00;5052052;28;20048;-67
2023/01/01 06:53:25;;;;;;;18.65;11.38;;;;;;;5.13;100.00;99564.84;5039194;28;20060;-67
2023/01/01 06:56:10;;;;;;;20.13;10.90;;;;;;;5.18;100.00;99573.34;5051609;28;20041;-66
2023/01/01 06:58:55;;;;;;;20.13;11.98;;;;;;;5.16;100.00;99574.28;5051419;28;20503;-67
2023/01/01 07:01:39;;;;;;;17.40;10.98;;;;;;;5.23;100.00;99585.34;5052142;28;20044;-66
2023/01/01 07:04:24;;;;;;;17.60;11.27;;;;;;;5.28;100.00;99573.91;5051459;28;20562;-68
2023/01/01 07:07:09;;;;;;;19.02;11.50;;;;;;;5.32;100.00;99576.38;5051610;28;20098;-67
2023/01/01 07:09:53;;;;;;;20.92;12.02;;;;;;;5.29;100.00;99578.19;5050273;28;20063;-66
2023/01/01 07:12:38;;;;;;;19.75;11.95;;;;;;;5.30;100.00;99577.28;5051872;28;20067;-66
2023/01/01 07:15:23;;;;;;;17.60;11.18;;;;;;;5.30;100.00;99581.66;5037761;28;20095;-67
2023/01/01 07:18:08;;;;;;;17.17;11.55;;;;;;;5.29;100.00;99575.59;5041240;28;20072;-66
2023/01/01 07:20:58;;;;;;;18.45;11.20;;;;;;;5.45;100.00;99585.44;5051319;28;20045;-67
2023/01/01 07:23:43;;;;;;;19.83;11.98;;;;;;;5.41;100.00;99581.28;5049927;28;20051;-66
2023/01/01 07:26:29;;;;;;;22.27;12.35;;;;;;;5.45;100.00;99582.84;5051299;28;20045;-67
2023/01/01 07:29:14;;;;;;;21.02;12.60;;;;;;;5.42;100.00;99575.16;5048732;28;20049;-67
2023/01/01 07:31:58;;;;;;;20.88;12.30;;;;;;;5.43;100.00;99571.69;5050002;28;20412;-67
2023/01/01 07:34:44;;;;;;;21.35;12.60;;;;;;;5.58;100.00;99561.66;5049814;28;20103;-67
2023/01/01 07:37:31;;;;;;;20.58;12.88;;;;;;;5.72;100.00;99564.59;5040093;28;20048;-68
2023/01/01 07:40:18;;;;;;;18.95;11.48;;;;;;;5.76;100.00;99575.75;5035799;28;20048;-68
2023/01/01 07:43:03;;;;;;;19.15;11.93;;;;;;;5.69;100.00;99576.84;5049710;28;20523;-69
2023/01/01 07:45:51;;;;;;;19.40;11.60;;;;;;;5.65;100.00;99586.50;5050905;28;20407;-68
2023/01/01 07:48:35;;;;;;;18.17;11.35;;;;;;;5.72;100.00;99592.34;5037263;28;20049;-67
2023/01/01 07:51:20;;;;;;;19.02;12.00;;;;;;;5.77;100.00;99614.69;5049749;28;20052;-67
2023/01/01 07:54:05;;;;;;;16.98;11.32;;;;;;;5.73;100.00;99613.09;5050466;28;20048;-67
2023/01/01 07:56:50;;;;;;;17.92;11.25;;;;;;;5.71;100.00;99609.72;5018412;28;20053;-68
2023/01/01 07:59:36;;;;;;;19.65;11.93;;;;;;;5.62;100.00;99604.81;5050152;28;20508;-67
2023/01/01 08:02:21;;;;;;;20.25;12.05;;;;;;;5.70;100.00;99622.75;5050288;28;20492;-67
2023/01/01 08:05:06;;;;;;;19.77;12.05;;;;;;;5.64;100.00;99619.47;5050569;28;20140;-67
2023/01/01 08:07:51;;;;;;;18.33;10.93;;;;;;;5.72;100.00;99616.59;5047990;28;20131;-67
2023/01/01 08:10:36;;;;;;;20.00;12.18;;;;;;;5.84;100.00;99641.34;5048750;28;20528;-67
2023/01/01 08:13:21;;;;;;;19.45;11.68;;;;;;;5.94;100.00;99652.25;5049275;28;20079;-66
2023/01/01 08:16:06;;;;;;;19.73;12.50;;;;;;;6.22;100.00;99666.09;5050277;28;20049;-67
2023/01/01 08:18:51;;;;;;;19.63;10.32;;;;;;;6.91;100.00;99677.41;5050283;28;20055;-67
2023/01/01 08:21:35;;;;;;;18.45;11.52;;;;;;;7.32;100.00;99670.63;5049225;28;20045;-68
2023/01/01 08:24:20;;;;;;;20.48;10.70;;;;;;;6.90;100.00;99673.94;5037233;28;20106;-68
2023/01/01 08:27:05;;;;;;;18.58;10.98;;;;;;;6.78;100.00;99667.47;5049175;28;20128;-66
2023/01/01 08:29:50;;;;;;;15.90;10.35;;;;;;;6.74;100.00;99663.28;5050681;28;20543;-67
2023/01/01 08:32:34;;;;;;;16.95;10.05;;;;;;;6.69;100.00;99669.59;5030569;28;20116;-66
2023/01/01 08:35:19;;;;;;;19.40;11.90;;;;;;;6.62;100.00;99655.94;5047445;28;20041;-67
2023/01/01 08:38:04;;;;;;;20.58;11.82;;;;;;;6.59;100.00;99654.31;5050335;28;20041;-66
2023/01/01 08:40:49;;;;;;;18.80;11.32;;;;;;;6.67;100.00;99656.63;5021468;28;20049;-67
2023/01/01 08:43:34;;;;;;;17.15;10.95;;;;;;;6.59;100.00;99656.06;5050087;28;20049;-66
2023/01/01 08:46:19;;;;;;;19.30;11.38;;;;;;;6.58;100.00;99647.38;5049234;28;20052;-67
2023/01/01 08:49:03;;;;;;;15.63;11.10;;;;;;;6.76;100.00;99660.59;5050196;28;20110;-66
2023/01/01 08:51:48;;;;;;;16.30;10.30;;;;;;;6.90;100.00;99679.16;5038572;28;20061;-67
2023/01/01 08:54:33;;;;;;;16.58;11.27;;;;;;;7.19;100.00;99684.16;5036941;28;20483;-67
2023/01/01 08:57:17;;;;;;;21.75;11.70;;;;;;;6.86;100.00;99681.94;5049707;28;20167;-68
2023/01/01 09:00:03;;;;;;;20.35;12.25;;;;;;;6.59;100.00;99676.88;5049988;28;20077;-67
2023/01/01 09:02:49;;;;;;;19.20;12.13;;;;;;;6.60;100.00;99684.66;5048478;28;20064;-68
2023/01/01 09:05:34;;;;;;;16.55;10.18;;;;;;;6.98;100.00;99671.06;5035537;28;20056;-68
2023/01/01 09:08:20;;;;;;;20.00;11.38;;;;;;;7.69;100.00;99653.44;5049975;28;20120;-68
2023/01/01 09:11:04;;;;;;;18.58;11.57;;;;;;;8.19;100.00;99651.31;5049248;28;20080;-69
2023/01/01 09:13:49;;;;;;;18.08;10.45;;;;;;;8.24;100.00;99657.16;5049913;28;20492;-69
2023/01/01 09:16:34;;;;;;;17.27;10.70;;;;;;;8.93;100.00;99661.94;5048831;28;20044;-71
2023/01/01 09:19:19;;;;;;;21.58;11.80;;;;;;;9.41;96.26;99657.94;5049712;28;20047;-71
2023/01/01 09:22:08;;;;;;;17.77;11.20;;;;;;;9.34;96.39;99652.16;5049712;28;20057;-71
2023/01/01 09:24:53;;;;;;;16.45;9.75;;;;;;;9.79;94.56;99649.91;5048641;28;20120;-71
2023/01/01 09:27:39;;;;;;;18.17;11.40;;;;;;;10.32;90.88;99646.34;5037938;28;20191;-71
2023/01/01 09:30:24;;;;;;;16.33;9.82;;;;;;;10.19;90.07;99648.75;5048280;28;20680;-71
2023/01/01 09:33:09;;;;;;;19.67;10.98;;;;;;;10.82;88.23;99659.44;5049660;28;20067;-71
2023/01/01 09:35:54;;;;;;;16.08;10.13;;;;;;;11.63;82.14;99648.78;5048659;28;20063;-72
2023/01/01 09:38:38;;;;;;;15.82;9.65;;;;;;;11.79;81.92;99667.94;5034099;28;20068;-72
2023/01/01 09:41:46;;;;;;;15.07;9.15;;;;;;;11.68;82.01;99670.34;5049582;28;20088;-71
2023/01/01 09:44:58;;;;;;;16.15;9.43;;;;;;;11.99;81.00;99668.53;5049156;28;20500;-72
2023/01/01 09:47:46;;;;;;;12.75;8.50;;;;;;;11.74;84.04;99677.00;5048384;28;20132;-71
2023/01/01 09:50:42;;;;;;;14.18;9.30;;;;;;;11.79;80.89;99678.44;5048876;28;20044;-71
2023/01/01 09:53:53;;;;;;;13.75;9.07;;;;;;;12.54;79.34;99700.28;5038188;28;20076;-72
2023/01/01 09:56:39;;;;;;;13.73;8.25;;;;;;;13.63;73.88;99697.81;5037896;28;20558;-73
2023/01/01 09:59:25;;;;;;;14.00;8.00;;;;;;;13.28;74.08;99707.06;5051950;28;20196;-71
2023/01/01 10:02:38;;;;;;;13.63;8.20;;;;;;;13.09;77.19;99699.50;5051650;28;20041;-71
2023/01/01 10:05:44;;;;;;;12.70;7.82;;;;;;;12.69;76.73;99706.38;5052458;28;20208;-71
2023/01/01 10:08:59;;;;;;;11.05;8.05;;;;;;;11.99;80.68;99693.94;5052756;28;20051;-73
2023/01/01 10:11:53;;;;;;;16.02;8.85;;;;;;;12.17;80.55;99689.38;5043802;28;20052;-72
2023/01/01 10:14:42;;;;;;;12.68;7.57;;;;;;;12.24;79.79;99687.25;5038441;28;20534;-72
2023/01/01 10:17:30;;;;;;;13.35;8.65;;;;;;;11.54;83.48;99692.97;5051763;28;20040;-71
2023/01/01 10:20:34;;;;;;;9.65;6.78;;;;;;;12.27;83.03;99681.78;5046503;28;20131;-72
2023/01/01 10:23:24;;;;;;;13.48;8.57;;;;;;;12.52;79.99;99675.00;5043720;28;20131;-72
2023/01/01 10:26:20;;;;;;;11.73;7.95;;;;;;;13.27;74.98;99672.94;5041653;28;20072;-72
2023/01/01 10:29:08;;;;;;;12.77;8.95;;;;;;;12.69;76.89;99666.06;5052437;28;20051;-72
2023/01/01 10:31:55;;;;;;;14.18;8.32;;;;;;;13.02;78.56;99669.28;5052459;28;20053;-71
2023/01/01 10:34:40;;;;;;;14.43;9.45;;;;;;;12.76;77.51;99670.00;5051273;28;20045;-72
2023/01/01 10:37:34;;;;;;;14.32;8.10;;;;;;;13.27;75.60;99671.16;5041427;28;20183;-72
2023/01/01 10:40:22;;;;;;;12.27;8.13;;;;;;;13.55;74.51;99671.13;5051081;28;20041;-71
2023/01/01 10:43:10;;;;;;;10.27;6.93;;;;;;;14.22;73.65;99661.38;5078980;28;21318;-72
2023/01/01 10:45:55;;;;;;;10.18;6.82;;;;;;;14.25;70.79;99657.69;5052143;28;20147;-72
2023/01/01 10:49:02;;;;;;;11.88;7.18;;;;;;;13.46;72.94;99656.78;5039995;28;20064;-72
2023/01/01 10:51:49;;;;;;;9.55;6.65;;;;;;;13.28;74.43;99649.19;5051861;28;20499;-72
2023/01/01 10:54:35;;;;;;;13.40;7.50;;;;;;;13.86;73.29;99644.53;5048886;28;20041;-72
2023/01/01 10:57:26;;;;;;;10.32;6.88;;;;;;;13.87;73.08;99651.50;5052321;28;20045;-72
2023/01/01 11:00:17;;;;;;;9.98;6.63;;;;;;;13.83;72.95;99639.47;5051959;28;20056;-72
2023/01/01 11:03:28;;;;;;;;;;;;;;;14.37;71.39;99650.72;5040233;28;20045;-72
2023/01/01 11:06:22;;;;;;;10.00;6.20;;;;;;;14.42;71.37;99656.50;5051613;28;19982;-73
2023/01/01 11:09:28;;;;;;;12.13;7.20;;;;;;;15.07;68.38;99658.13;5049419;28;20133;-72
2023/01/01 11:12:19;;;;;;;10.45;6.70;;;;;;;14.66;73.27;99653.91;5051755;28;20061;-72
2023/01/01 11:15:05;;;;;;;10.68;6.90;;;;;;;15.41;67.63;99652.16;5050754;28;20137;-73
2023/01/01 11:17:51;;;;;;;10.77;7.43;;;;;;;14.74;67.93;99649.88;5038804;28;20065;-73
2023/01/01 11:20:36;;;;;;;11.15;6.97;;;;;;;15.26;69.95;99647.88;5051321;28;20396;-74
2023/01/01 11:23:29;;;;;;;11.77;7.95;;;;;;;14.88;68.56;99652.38;5052042;28;20051;-73
2023/01/01 11:26:16;;;;;;;11.20;7.45;;;;;;;15.67;65.10;99642.25;5040525;28;20061;-72
2023/01/01 11:29:26;;;;;;;10.32;6.55;;;;;;;15.21;68.80;99647.38;5051300;28;20064;-73
2023/01/01 11:32:18;;;;;;;8.98;6.50;;;;;;;15.62;67.97;99644.38;5051194;28;20048;-73
2023/01/01 11:35:06;;;;;;;11.38;6.18;;;;;;;15.67;68.61;99642.25;5050892;28;20412;-73
2023/01/01 11:37:53;;;;;;;9.52;6.07;;;;;;;15.44;66.48;99641.34;5036901;28;20140;-73
2023/01/01 11:40:48;;;;;;;8.18;5.60;;;;;;;15.20;67.33;99644.84;5068262;28;20033;-72
2023/01/01 11:43:45;;;;;;;8.23;5.18;;;;;;;16.17;67.19;99642.94;5038783;28;20053;-72
2023/01/01 11:46:39;;;;;;;7.72;5.63;;;;;;;16.49;66.06;99643.03;5055816;28;20492;-73
2023/01/01 11:49:27;;;;;;;10.55;4.78;;;;;;;17.47;61.84;99641.41;5055344;28;20041;-73
2023/01/01 11:52:51;;;;;;;8.73;5.88;;;;;;;17.65;60.17;99635.53;5051378;28;20045;-74
2023/01/01 11:55:41;;;;;;;10.48;6.85;;;;;;;16.86;61.39;99643.66;5041874;28;20069;-73
2023/01/01 11:58:34;;;;;;;9.77;6.50;;;;;;;16.80;62.27;99646.81;5028976;28;20076;-72
2023/01/01 12:01:32;;;;;;;11.43;6.85;;;;;;;17.28;62.13;99636.81;5048368;28;20376;-74
2023/01/01 12:04:38;;;;;;;9.07;6.18;;;;;;;18.08;58.25;99638.97;5047988;28;20052;-73
2023/01/01 12:07:29;;;;;;;12.27;7.30;;;;;;;17.42;57.93;99638.31;5033797;28;20411;-74
2023/01/01 12:10:19;;;;;;;10.38;6.70;;;;;;;16.65;63.15;99640.97;5048182;28;20053;-73
2023/01/01 12:13:16;;;;;;;9.98;6.63;;;;;;;17.39;61.79;99634.13;5028509;28;20913;-73
2023/01/01 12:16:39;;;;;;;10.45;6.88;;;;;;;16.70;61.11;99634.34;5046199;28;20052;-74
2023/01/01 12:19:47;;;;;;;11.32;5.90;;;;;;;16.87;61.37;99632.13;5048423;28;20064;-74
2023/01/01 12:22:31;;;;;;;10.05;5.97;;;;;;;17.49;59.91;99627.06;5047539;28;20057;-76
2023/01/01 12:25:18;;;;;;;10.32;6.25;;;;;;;17.78;58.36;99633.53;5047954;28;20083;-74
2023/01/01 12:28:23;;;;;;;10.75;5.90;;;;;;;17.38;61.05;99636.91;5048115;28;20099;-75
2023/01/01 12:31:23;;;;;;;7.70;5.88;;;;;;;16.84;60.82;99638.50;5039820;28;20053;-75
2023/01/01 12:34:27;;;;;;;11.30;5.85;;;;;;;16.99;65.15;99646.16;5037816;28;20488;-75
2023/01/01 12:37:39;;;;;;;9.02;5.50;;;;;;;16.51;63.25;99642.91;5037881;28;20049;-74
2023/01/01 12:40:38;;;;;;;8.25;6.03;;;;;;;16.58;61.46;99640.63;5031346;28;20049;-73
2023/01/01 12:43:31;;;;;;;9.35;6.40;;;;;;;15.98;66.37;99645.19;5048418;28;20408;-74
2023/01/01 12:47:15;;;;;;;10.25;6.47;;;;;;;16.43;63.85;99642.69;5049154;28;20045;-74
2023/01/01 12:50:00;;;;;;;11.30;6.20;;;;;;;16.15;66.08;99637.78;4968819;28;20067;-74
2023/01/01 12:53:09;;;;;;;9.00;6.32;;;;;;;16.44;62.46;99628.47;4956002;28;20081;-74
2023/01/01 12:56:02;;;;;;;10.90;6.07;;;;;;;15.79;67.13;99629.91;4969165;28;20373;-74
2023/01/01 12:58:54;;;;;;;8.02;4.85;;;;;;;16.27;65.32;99628.03;4969308;28;20050;-74
2023/01/01 13:01:40;;;;;;;10.10;6.50;;;;;;;15.85;66.45;99626.78;4959955;28;20449;-74
2023/01/01 13:04:26;;;;;;;11.45;6.38;;;;;;;15.92;65.68;99637.72;4968987;28;20043;-74
2023/01/01 13:07:13;;;;;;;6.65;5.00;;;;;;;16.16;67.28;99641.25;4968564;28;20051;-73
2023/01/01 13:10:07;;;;;;;10.32;5.78;;;;;;;16.85;61.69;99642.00;4955920;28;20415;-74